sensor_id;sensor_type;location;lat;lon;timestamp;P1;durP1;ratioP1;P2;durP2;ratioP2
6185;SDS011;3126;52.738;8.316;2023-07-13T00:04:40;12.93;;;8.98;;
6185;SDS011;3126;52.738;8.316;2023-07-13T00:09:42;15.55;;;10.85;;
6185;SDS011;3126;52.738;8.316;2023-07-13T00:14:43;14.48;;;9.55;;
6185;SDS011;3126;52.738;8.316;2023-07-13T00:19:44;13.60;;;10.30;;
6185;SDS011;3126;52.738;8.316;2023-07-13T00:24:45;16.42;;;10.82;;
6185;SDS011;3126;52.738;8.316;2023-07-13T00:29:46;15.02;;;8.60;;
6185;SDS011;3126;52.738;8.316;2023-07-13T00:34:47;13.88;;;8.80;;
6185;SDS011;3126;52.738;8.316;2023-07-13T00:39:48;12.20;;;8.55;;
6185;SDS011;3126;52.738;8.316;2023-07-13T00:45:06;10.80;;;8.23;;
6185;SDS011;3126;52.738;8.316;2023-07-13T00:50:09;13.52;;;7.18;;
6185;SDS011;3126;52.738;8.316;2023-07-13T00:55:10;10.23;;;6.72;;
6185;SDS011;3126;52.738;8.316;2023-07-13T01:00:12;9.70;;;6.10;;
6185;SDS011;3126;52.738;8.316;2023-07-13T01:05:18;10.20;;;5.90;;
6185;SDS011;3126;52.738;8.316;2023-07-13T01:10:23;11.77;;;6.05;;
6185;SDS011;3126;52.738;8.316;2023-07-13T01:20:34;10.63;;;5.80;;
6185;SDS011;3126;52.738;8.316;2023-07-13T01:25:36;12.52;;;5.63;;
6185;SDS011;3126;52.738;8.316;2023-07-13T01:30:38;10.43;;;6.05;;
6185;SDS011;3126;52.738;8.316;2023-07-13T01:35:40;11.82;;;5.35;;
6185;SDS011;3126;52.738;8.316;2023-07-13T01:40:41;11.95;;;4.60;;
6185;SDS011;3126;52.738;8.316;2023-07-13T01:45:43;6.78;;;4.18;;
6185;SDS011;3126;52.738;8.316;2023-07-13T01:50:44;5.88;;;3.72;;
6185;SDS011;3126;52.738;8.316;2023-07-13T01:55:45;8.48;;;4.05;;
6185;SDS011;3126;52.738;8.316;2023-07-13T02:00:48;8.95;;;3.88;;
6185;SDS011;3126;52.738;8.316;2023-07-13T02:05:49;9.63;;;4.00;;
6185;SDS011;3126;52.738;8.316;2023-07-13T02:10:50;7.88;;;3.88;;
6185;SDS011;3126;52.738;8.316;2023-07-13T02:15:51;11.80;;;3.55;;
6185;SDS011;3126;52.738;8.316;2023-07-13T02:20:52;7.22;;;3.92;;
6185;SDS011;3126;52.738;8.316;2023-07-13T02:25:55;12.45;;;3.42;;
6185;SDS011;3126;52.738;8.316;2023-07-13T02:31:03;5.70;;;3.15;;
6185;SDS011;3126;52.738;8.316;2023-07-13T02:36:05;6.50;;;3.55;;
6185;SDS011;3126;52.738;8.316;2023-07-13T02:41:07;11.18;;;2.55;;
6185;SDS011;3126;52.738;8.316;2023-07-13T02:46:08;8.07;;;3.13;;
6185;SDS011;3126;52.738;8.316;2023-07-13T02:51:09;5.85;;;2.97;;
6185;SDS011;3126;52.738;8.316;2023-07-13T02:56:10;8.80;;;2.88;;
6185;SDS011;3126;52.738;8.316;2023-07-13T03:01:11;8.20;;;4.18;;
6185;SDS011;3126;52.738;8.316;2023-07-13T03:06:12;9.23;;;3.30;;
6185;SDS011;3126;52.738;8.316;2023-07-13T03:11:15;7.80;;;3.22;;
6185;SDS011;3126;52.738;8.316;2023-07-13T03:16:16;6.50;;;3.15;;
6185;SDS011;3126;52.738;8.316;2023-07-13T03:21:17;8.80;;;3.22;;
6185;SDS011;3126;52.738;8.316;2023-07-13T03:26:19;9.65;;;3.70;;
6185;SDS011;3126;52.738;8.316;2023-07-13T03:31:21;13.63;;;3.58;;
6185;SDS011;3126;52.738;8.316;2023-07-13T03:36:24;8.02;;;3.80;;
6185;SDS011;3126;52.738;8.316;2023-07-13T03:41:26;4.88;;;2.72;;
6185;SDS011;3126;52.738;8.316;2023-07-13T03:46:27;13.73;;;4.03;;
6185;SDS011;3126;52.738;8.316;2023-07-13T03:51:28;14.73;;;3.90;;
6185;SDS011;3126;52.738;8.316;2023-07-13T03:56:30;9.85;;;3.38;;
6185;SDS011;3126;52.738;8.316;2023-07-13T04:01:32;10.73;;;3.88;;
6185;SDS011;3126;52.738;8.316;2023-07-13T04:06:33;5.30;;;3.10;;
6185;SDS011;3126;52.738;8.316;2023-07-13T04:11:35;6.57;;;3.17;;
6185;SDS011;3126;52.738;8.316;2023-07-13T04:16:39;9.00;;;3.35;;
6185;SDS011;3126;52.738;8.316;2023-07-13T04:21:40;10.88;;;3.78;;
6185;SDS011;3126;52.738;8.316;2023-07-13T04:26:41;6.13;;;3.10;;
6185;SDS011;3126;52.738;8.316;2023-07-13T04:31:41;11.10;;;3.63;;
6185;SDS011;3126;52.738;8.316;2023-07-13T04:36:42;10.27;;;3.60;;
6185;SDS011;3126;52.738;8.316;2023-07-13T04:41:43;11.18;;;3.63;;
6185;SDS011;3126;52.738;8.316;2023-07-13T04:46:45;7.38;;;3.22;;
6185;SDS011;3126;52.738;8.316;2023-07-13T04:51:46;9.52;;;4.18;;
6185;SDS011;3126;52.738;8.316;2023-07-13T04:56:47;12.90;;;5.30;;
6185;SDS011;3126;52.738;8.316;2023-07-13T05:01:49;10.70;;;3.83;;
6185;SDS011;3126;52.738;8.316;2023-07-13T05:06:52;8.60;;;3.45;;
6185;SDS011;3126;52.738;8.316;2023-07-13T05:11:53;10.43;;;3.95;;
6185;SDS011;3126;52.738;8.316;2023-07-13T05:16:54;6.82;;;3.30;;
6185;SDS011;3126;52.738;8.316;2023-07-13T05:21:57;8.85;;;3.85;;
6185;SDS011;3126;52.738;8.316;2023-07-13T05:26:58;8.73;;;3.88;;
6185;SDS011;3126;52.738;8.316;2023-07-13T05:31:59;7.30;;;3.50;;
6185;SDS011;3126;52.738;8.316;2023-07-13T05:37:00;9.93;;;3.58;;
6185;SDS011;3126;52.738;8.316;2023-07-13T05:42:01;9.50;;;3.40;;
6185;SDS011;3126;52.738;8.316;2023-07-13T05:47:03;9.30;;;3.92;;
6185;SDS011;3126;52.738;8.316;2023-07-13T05:52:05;8.45;;;3.55;;
6185;SDS011;3126;52.738;8.316;2023-07-13T05:57:06;8.35;;;3.47;;
6185;SDS011;3126;52.738;8.316;2023-07-13T06:02:08;6.88;;;4.15;;
6185;SDS011;3126;52.738;8.316;2023-07-13T06:07:10;8.07;;;4.15;;
6185;SDS011;3126;52.738;8.316;2023-07-13T06:12:11;11.63;;;3.67;;
6185;SDS011;3126;52.738;8.316;2023-07-13T06:17:12;7.03;;;4.28;;
6185;SDS011;3126;52.738;8.316;2023-07-13T06:22:13;8.45;;;3.95;;
6185;SDS011;3126;52.738;8.316;2023-07-13T06:27:15;9.77;;;3.55;;
6185;SDS011;3126;52.738;8.316;2023-07-13T06:32:16;10.48;;;4.57;;
6185;SDS011;3126;52.738;8.316;2023-07-13T06:37:17;7.88;;;4.05;;
6185;SDS011;3126;52.738;8.316;2023-07-13T06:42:19;11.38;;;4.60;;
6185;SDS011;3126;52.738;8.316;2023-07-13T06:47:19;9.85;;;4.68;;
6185;SDS011;3126;52.738;8.316;2023-07-13T06:52:20;9.88;;;4.57;;
6185;SDS011;3126;52.738;8.316;2023-07-13T06:57:21;9.55;;;4.30;;
6185;SDS011;3126;52.738;8.316;2023-07-13T07:02:22;10.27;;;4.63;;
6185;SDS011;3126;52.738;8.316;2023-07-13T07:07:24;10.50;;;4.22;;
6185;SDS011;3126;52.738;8.316;2023-07-13T07:12:25;22.30;;;7.70;;
6185;SDS011;3126;52.738;8.316;2023-07-13T07:17:26;8.13;;;4.10;;
6185;SDS011;3126;52.738;8.316;2023-07-13T07:22:27;10.68;;;4.80;;
6185;SDS011;3126;52.738;8.316;2023-07-13T07:27:28;11.48;;;4.63;;
6185;SDS011;3126;52.738;8.316;2023-07-13T07:32:30;8.30;;;3.85;;
6185;SDS011;3126;52.738;8.316;2023-07-13T07:37:31;23.80;;;9.07;;
6185;SDS011;3126;52.738;8.316;2023-07-13T07:42:32;9.02;;;4.78;;
6185;SDS011;3126;52.738;8.316;2023-07-13T07:47:33;14.73;;;5.22;;
6185;SDS011;3126;52.738;8.316;2023-07-13T07:52:35;8.77;;;4.88;;
6185;SDS011;3126;52.738;8.316;2023-07-13T07:57:36;7.97;;;4.45;;
6185;SDS011;3126;52.738;8.316;2023-07-13T08:02:37;8.13;;;4.57;;
6185;SDS011;3126;52.738;8.316;2023-07-13T08:07:38;7.80;;;4.82;;
6185;SDS011;3126;52.738;8.316;2023-07-13T08:12:40;21.30;;;6.45;;
6185;SDS011;3126;52.738;8.316;2023-07-13T08:17:41;9.15;;;4.75;;
6185;SDS011;3126;52.738;8.316;2023-07-13T08:22:42;34.30;;;9.18;;
6185;SDS011;3126;52.738;8.316;2023-07-13T08:27:42;10.65;;;5.50;;
6185;SDS011;3126;52.738;8.316;2023-07-13T08:32:43;7.43;;;4.63;;
6185;SDS011;3126;52.738;8.316;2023-07-13T08:37:44;9.40;;;4.20;;
6185;SDS011;3126;52.738;8.316;2023-07-13T08:42:45;5.35;;;3.67;;
6185;SDS011;3126;52.738;8.316;2023-07-13T08:53:03;16.15;;;5.57;;
6185;SDS011;3126;52.738;8.316;2023-07-13T08:58:09;7.55;;;3.60;;
6185;SDS011;3126;52.738;8.316;2023-07-13T09:03:57;13.20;;;4.60;;
6185;SDS011;3126;52.738;8.316;2023-07-13T09:18:58;9.68;;;3.88;;
6185;SDS011;3126;52.738;8.316;2023-07-13T09:29:26;7.47;;;3.60;;
6185;SDS011;3126;52.738;8.316;2023-07-13T09:34:27;15.43;;;4.88;;
6185;SDS011;3126;52.738;8.316;2023-07-13T09:39:35;8.30;;;3.45;;
6185;SDS011;3126;52.738;8.316;2023-07-13T09:44:38;4.70;;;3.13;;
6185;SDS011;3126;52.738;8.316;2023-07-13T09:49:40;9.63;;;3.17;;
6185;SDS011;3126;52.738;8.316;2023-07-13T09:54:44;6.35;;;2.97;;
6185;SDS011;3126;52.738;8.316;2023-07-13T09:59:49;5.40;;;3.13;;
6185;SDS011;3126;52.738;8.316;2023-07-13T10:04:58;6.97;;;3.08;;
6185;SDS011;3126;52.738;8.316;2023-07-13T10:10:00;5.32;;;2.63;;
6185;SDS011;3126;52.738;8.316;2023-07-13T10:15:02;4.75;;;2.97;;
6185;SDS011;3126;52.738;8.316;2023-07-13T10:20:04;6.22;;;2.90;;
6185;SDS011;3126;52.738;8.316;2023-07-13T10:25:13;9.57;;;3.45;;
6185;SDS011;3126;52.738;8.316;2023-07-13T10:30:19;5.78;;;2.90;;
6185;SDS011;3126;52.738;8.316;2023-07-13T10:35:21;4.25;;;2.88;;
6185;SDS011;3126;52.738;8.316;2023-07-13T10:45:24;4.03;;;2.92;;
6185;SDS011;3126;52.738;8.316;2023-07-13T10:50:27;4.82;;;3.05;;
6185;SDS011;3126;52.738;8.316;2023-07-13T10:55:31;4.88;;;2.72;;
6185;SDS011;3126;52.738;8.316;2023-07-13T11:00:33;4.78;;;2.67;;
6185;SDS011;3126;52.738;8.316;2023-07-13T11:05:44;5.97;;;2.72;;
6185;SDS011;3126;52.738;8.316;2023-07-13T11:10:55;5.13;;;2.92;;
6185;SDS011;3126;52.738;8.316;2023-07-13T11:15:56;13.20;;;2.28;;
6185;SDS011;3126;52.738;8.316;2023-07-13T11:21:12;7.50;;;2.28;;
6185;SDS011;3126;52.738;8.316;2023-07-13T11:31:33;6.60;;;2.58;;
6185;SDS011;3126;52.738;8.316;2023-07-13T11:36:35;3.75;;;3.40;;
6185;SDS011;3126;52.738;8.316;2023-07-13T11:41:43;9.13;;;3.83;;
6185;SDS011;3126;52.738;8.316;2023-07-13T11:46:51;2.45;;;1.50;;
6185;SDS011;3126;52.738;8.316;2023-07-13T11:51:53;13.45;;;3.78;;
6185;SDS011;3126;52.738;8.316;2023-07-13T12:02:31;1.05;;;0.95;;
6185;SDS011;3126;52.738;8.316;2023-07-13T12:07:33;3.58;;;1.70;;
6185;SDS011;3126;52.738;8.316;2023-07-13T12:12:34;2.38;;;2.05;;
6185;SDS011;3126;52.738;8.316;2023-07-13T12:17:37;1.88;;;1.45;;
6185;SDS011;3126;52.738;8.316;2023-07-13T12:22:39;5.35;;;2.28;;
6185;SDS011;3126;52.738;8.316;2023-07-13T12:27:40;3.40;;;2.33;;
6185;SDS011;3126;52.738;8.316;2023-07-13T12:32:43;5.93;;;2.30;;
6185;SDS011;3126;52.738;8.316;2023-07-13T12:37:57;2.65;;;2.00;;
6185;SDS011;3126;52.738;8.316;2023-07-13T12:43:00;11.65;;;3.80;;
6185;SDS011;3126;52.738;8.316;2023-07-13T12:53:05;4.93;;;3.45;;
6185;SDS011;3126;52.738;8.316;2023-07-13T12:58:09;5.75;;;5.15;;
6185;SDS011;3126;52.738;8.316;2023-07-13T13:08:34;5.78;;;5.18;;
6185;SDS011;3126;52.738;8.316;2023-07-13T13:13:36;6.93;;;5.07;;
6185;SDS011;3126;52.738;8.316;2023-07-13T13:18:37;29.17;;;8.27;;
6185;SDS011;3126;52.738;8.316;2023-07-13T13:23:39;4.55;;;4.15;;
6185;SDS011;3126;52.738;8.316;2023-07-13T13:28:40;6.13;;;4.53;;
6185;SDS011;3126;52.738;8.316;2023-07-13T13:33:41;5.68;;;4.25;;
6185;SDS011;3126;52.738;8.316;2023-07-13T13:38:43;37.50;;;10.63;;
6185;SDS011;3126;52.738;8.316;2023-07-13T13:43:44;6.35;;;5.28;;
6185;SDS011;3126;52.738;8.316;2023-07-13T13:48:49;6.30;;;5.22;;
6185;SDS011;3126;52.738;8.316;2023-07-13T13:53:50;8.43;;;5.70;;
6185;SDS011;3126;52.738;8.316;2023-07-13T13:58:51;6.70;;;5.70;;
6185;SDS011;3126;52.738;8.316;2023-07-13T14:03:52;5.85;;;4.55;;
6185;SDS011;3126;52.738;8.316;2023-07-13T14:08:53;9.20;;;5.10;;
6185;SDS011;3126;52.738;8.316;2023-07-13T14:13:56;7.68;;;5.15;;
6185;SDS011;3126;52.738;8.316;2023-07-13T14:24:00;7.70;;;4.53;;
6185;SDS011;3126;52.738;8.316;2023-07-13T14:29:01;6.53;;;4.35;;
6185;SDS011;3126;52.738;8.316;2023-07-13T14:34:02;5.35;;;3.92;;
6185;SDS011;3126;52.738;8.316;2023-07-13T14:39:14;6.13;;;3.63;;
6185;SDS011;3126;52.738;8.316;2023-07-13T14:44:17;5.43;;;3.53;;
6185;SDS011;3126;52.738;8.316;2023-07-13T14:49:32;7.32;;;4.40;;
6185;SDS011;3126;52.738;8.316;2023-07-13T14:54:33;5.85;;;4.50;;
6185;SDS011;3126;52.738;8.316;2023-07-13T14:59:37;6.18;;;4.40;;
6185;SDS011;3126;52.738;8.316;2023-07-13T15:04:45;6.93;;;5.72;;
6185;SDS011;3126;52.738;8.316;2023-07-13T15:09:46;8.02;;;7.25;;
6185;SDS011;3126;52.738;8.316;2023-07-13T15:14:48;8.32;;;6.38;;
6185;SDS011;3126;52.738;8.316;2023-07-13T15:19:49;8.32;;;6.25;;
6185;SDS011;3126;52.738;8.316;2023-07-13T15:24:50;6.65;;;4.07;;
6185;SDS011;3126;52.738;8.316;2023-07-13T15:29:51;4.50;;;3.83;;
6185;SDS011;3126;52.738;8.316;2023-07-13T15:34:52;4.97;;;3.33;;
6185;SDS011;3126;52.738;8.316;2023-07-13T15:39:53;3.08;;;2.88;;
6185;SDS011;3126;52.738;8.316;2023-07-13T15:44:54;4.35;;;3.20;;
6185;SDS011;3126;52.738;8.316;2023-07-13T15:49:55;4.93;;;3.42;;
6185;SDS011;3126;52.738;8.316;2023-07-13T15:54:58;6.10;;;3.22;;
6185;SDS011;3126;52.738;8.316;2023-07-13T15:59:59;2.55;;;2.35;;
6185;SDS011;3126;52.738;8.316;2023-07-13T16:05:00;2.88;;;2.53;;
6185;SDS011;3126;52.738;8.316;2023-07-13T16:10:01;3.70;;;2.67;;
6185;SDS011;3126;52.738;8.316;2023-07-13T16:15:04;3.15;;;1.98;;
6185;SDS011;3126;52.738;8.316;2023-07-13T16:20:06;2.30;;;2.10;;
6185;SDS011;3126;52.738;8.316;2023-07-13T16:25:12;5.28;;;2.30;;
6185;SDS011;3126;52.738;8.316;2023-07-13T16:30:18;2.72;;;2.30;;
6185;SDS011;3126;52.738;8.316;2023-07-13T16:35:22;2.55;;;2.30;;
6185;SDS011;3126;52.738;8.316;2023-07-13T16:40:25;2.72;;;2.53;;
6185;SDS011;3126;52.738;8.316;2023-07-13T16:50:29;5.90;;;3.60;;
6185;SDS011;3126;52.738;8.316;2023-07-13T16:55:30;5.40;;;4.10;;
6185;SDS011;3126;52.738;8.316;2023-07-13T17:00:32;6.47;;;3.75;;
6185;SDS011;3126;52.738;8.316;2023-07-13T17:05:38;5.82;;;3.78;;
6185;SDS011;3126;52.738;8.316;2023-07-13T17:10:48;4.10;;;3.55;;
6185;SDS011;3126;52.738;8.316;2023-07-13T17:15:50;5.50;;;3.35;;
6185;SDS011;3126;52.738;8.316;2023-07-13T17:20:57;6.32;;;4.00;;
6185;SDS011;3126;52.738;8.316;2023-07-13T17:25:58;4.90;;;2.92;;
6185;SDS011;3126;52.738;8.316;2023-07-13T17:30:59;5.20;;;3.63;;
6185;SDS011;3126;52.738;8.316;2023-07-13T17:36:01;4.70;;;3.22;;
6185;SDS011;3126;52.738;8.316;2023-07-13T17:41:03;4.63;;;3.05;;
6185;SDS011;3126;52.738;8.316;2023-07-13T17:46:18;5.15;;;3.70;;
6185;SDS011;3126;52.738;8.316;2023-07-13T17:51:28;5.20;;;3.30;;
6185;SDS011;3126;52.738;8.316;2023-07-13T17:56:30;3.28;;;2.92;;
6185;SDS011;3126;52.738;8.316;2023-07-13T18:01:31;5.13;;;2.97;;
6185;SDS011;3126;52.738;8.316;2023-07-13T18:06:34;5.65;;;3.47;;
6185;SDS011;3126;52.738;8.316;2023-07-13T18:11:37;4.88;;;3.47;;
6185;SDS011;3126;52.738;8.316;2023-07-13T18:16:38;3.72;;;3.10;;
6185;SDS011;3126;52.738;8.316;2023-07-13T18:21:40;4.75;;;2.97;;
6185;SDS011;3126;52.738;8.316;2023-07-13T18:26:41;5.18;;;3.60;;
6185;SDS011;3126;52.738;8.316;2023-07-13T18:31:41;4.53;;;3.20;;
6185;SDS011;3126;52.738;8.316;2023-07-13T18:36:44;8.48;;;4.00;;
6185;SDS011;3126;52.738;8.316;2023-07-13T18:41:45;7.85;;;3.67;;
6185;SDS011;3126;52.738;8.316;2023-07-13T18:46:46;7.20;;;3.47;;
6185;SDS011;3126;52.738;8.316;2023-07-13T18:51:48;5.13;;;3.97;;
6185;SDS011;3126;52.738;8.316;2023-07-13T18:56:52;4.68;;;3.40;;
6185;SDS011;3126;52.738;8.316;2023-07-13T19:01:52;3.80;;;3.45;;
6185;SDS011;3126;52.738;8.316;2023-07-13T19:06:54;3.67;;;3.10;;
6185;SDS011;3126;52.738;8.316;2023-07-13T19:11:55;4.75;;;3.15;;
6185;SDS011;3126;52.738;8.316;2023-07-13T19:16:56;5.85;;;3.42;;
6185;SDS011;3126;52.738;8.316;2023-07-13T19:21:57;5.15;;;3.72;;
6185;SDS011;3126;52.738;8.316;2023-07-13T19:27:01;5.55;;;4.05;;
6185;SDS011;3126;52.738;8.316;2023-07-13T19:32:02;4.07;;;3.50;;
6185;SDS011;3126;52.738;8.316;2023-07-13T19:47:13;5.47;;;4.20;;
6185;SDS011;3126;52.738;8.316;2023-07-13T19:52:19;6.53;;;4.10;;
6185;SDS011;3126;52.738;8.316;2023-07-13T19:57:22;7.32;;;4.00;;
6185;SDS011;3126;52.738;8.316;2023-07-13T20:02:24;6.43;;;4.10;;
6185;SDS011;3126;52.738;8.316;2023-07-13T20:07:25;6.45;;;3.72;;
6185;SDS011;3126;52.738;8.316;2023-07-13T20:12:26;10.23;;;3.85;;
6185;SDS011;3126;52.738;8.316;2023-07-13T20:17:28;4.30;;;3.90;;
6185;SDS011;3126;52.738;8.316;2023-07-13T20:22:30;5.57;;;3.45;;
6185;SDS011;3126;52.738;8.316;2023-07-13T20:27:31;6.25;;;3.63;;
6185;SDS011;3126;52.738;8.316;2023-07-13T20:32:33;4.47;;;3.70;;
6185;SDS011;3126;52.738;8.316;2023-07-13T20:37:37;4.50;;;3.35;;
6185;SDS011;3126;52.738;8.316;2023-07-13T20:42:38;3.88;;;3.10;;
6185;SDS011;3126;52.738;8.316;2023-07-13T20:47:39;4.75;;;3.30;;
6185;SDS011;3126;52.738;8.316;2023-07-13T20:52:41;5.10;;;3.22;;
6185;SDS011;3126;52.738;8.316;2023-07-13T20:57:45;3.85;;;3.45;;
6185;SDS011;3126;52.738;8.316;2023-07-13T21:02:47;4.63;;;3.90;;
6185;SDS011;3126;52.738;8.316;2023-07-13T21:07:49;5.13;;;3.42;;
6185;SDS011;3126;52.738;8.316;2023-07-13T21:12:50;4.35;;;3.47;;
6185;SDS011;3126;52.738;8.316;2023-07-13T21:17:53;3.85;;;3.50;;
6185;SDS011;3126;52.738;8.316;2023-07-13T21:22:54;4.95;;;3.47;;
6185;SDS011;3126;52.738;8.316;2023-07-13T21:27:56;13.15;;;3.97;;
6185;SDS011;3126;52.738;8.316;2023-07-13T21:32:57;7.57;;;4.80;;
6185;SDS011;3126;52.738;8.316;2023-07-13T21:37:59;5.50;;;4.20;;
6185;SDS011;3126;52.738;8.316;2023-07-13T21:43:01;4.75;;;4.20;;
6185;SDS011;3126;52.738;8.316;2023-07-13T21:48:03;4.93;;;4.30;;
6185;SDS011;3126;52.738;8.316;2023-07-13T21:53:19;6.85;;;5.32;;
6185;SDS011;3126;52.738;8.316;2023-07-13T21:58:24;5.30;;;4.80;;
6185;SDS011;3126;52.738;8.316;2023-07-13T22:03:27;5.30;;;4.25;;
6185;SDS011;3126;52.738;8.316;2023-07-13T22:08:29;4.93;;;4.30;;
6185;SDS011;3126;52.738;8.316;2023-07-13T22:13:31;6.07;;;4.30;;
6185;SDS011;3126;52.738;8.316;2023-07-13T22:18:32;6.57;;;4.57;;
6185;SDS011;3126;52.738;8.316;2023-07-13T22:23:33;5.35;;;4.45;;
6185;SDS011;3126;52.738;8.316;2023-07-13T22:28:34;5.80;;;5.07;;
6185;SDS011;3126;52.738;8.316;2023-07-13T22:33:35;5.68;;;5.18;;
6185;SDS011;3126;52.738;8.316;2023-07-13T22:38:36;6.57;;;5.47;;
6185;SDS011;3126;52.738;8.316;2023-07-13T22:43:37;7.18;;;5.30;;
6185;SDS011;3126;52.738;8.316;2023-07-13T22:48:39;6.72;;;5.95;;
6185;SDS011;3126;52.738;8.316;2023-07-13T22:53:41;9.80;;;5.57;;
6185;SDS011;3126;52.738;8.316;2023-07-13T22:58:42;7.97;;;6.30;;
6185;SDS011;3126;52.738;8.316;2023-07-13T23:03:43;7.28;;;4.68;;
6185;SDS011;3126;52.738;8.316;2023-07-13T23:08:45;8.07;;;5.95;;
6185;SDS011;3126;52.738;8.316;2023-07-13T23:18:50;11.35;;;6.38;;
6185;SDS011;3126;52.738;8.316;2023-07-13T23:23:51;8.80;;;6.10;;
6185;SDS011;3126;52.738;8.316;2023-07-13T23:28:54;7.30;;;5.53;;
6185;SDS011;3126;52.738;8.316;2023-07-13T23:33:55;6.78;;;6.05;;
6185;SDS011;3126;52.738;8.316;2023-07-13T23:38:57;9.15;;;6.38;;
6185;SDS011;3126;52.738;8.316;2023-07-13T23:43:58;8.15;;;6.55;;
6185;SDS011;3126;52.738;8.316;2023-07-13T23:49:01;9.90;;;7.22;;
6185;SDS011;3126;52.738;8.316;2023-07-13T23:54:08;8.95;;;6.00;;
6185;SDS011;3126;52.738;8.316;2023-07-13T23:59:11;8.13;;;6.53;;
